x

Sombrero Key, Fl (smkf1) Weather Station

12:00pm - Sun 2nd Aug 2015 All times are CDT. -4 hours from GMT.

  • Wind
    9mph, 11mph gusts
  • Air Temp 86°f
  • Sea Pressure 1016.4mb
  • Sombrero Key, Fl
  • Sombrero Key, Fl

More Historic Weather Station data

Upgrade to MSW Pro to gain access to the past 30 days of data for over 8000 Wavebouys and Weather Stations around the globe.

Join Pro

Comparision Forecast

View Surf forecast
   
Sun 08/02 12:00pm 9 11 mph 1016.4mb 86f
11:00am 10 11 mph 1015.9mb 86f
10:00am 11 13 mph 1015.7mb 86f
9:00am 13
mph
1015.2mb 85f
8:00am 13 14 mph 1015mb 85f
7:00am 15 17 mph 1014.5mb 85f
6:00am 14 15 mph 1014.5mb 85f
5:00am 14 15 mph 1014.5mb 85f
4:00am 14 16 mph 1014.6mb 85f
3:00am 15 17 mph 1015.2mb 85f
2:00am 13 15 mph 1015.8mb 85f
1:00am 15 16 mph 1016.5mb 86f
12:00am 18 20 mph 1016.4mb 85f
Sat 08/01 11:00pm 18 20 mph 1016.6mb 85f
10:00pm 15
mph
1016.3mb 85f
9:00pm 11 13 mph 1015.9mb 85f
8:00pm 8 9 mph 1015.1mb 86f
7:00pm 5 6 mph 1014.8mb 87f
6:00pm 3 5 mph 1015mb 87f
5:00pm 7 8 mph 1015.3mb 89f
4:00pm 8
mph
1015.7mb 88f
3:00pm 9 10 mph 1016.2mb 87f
2:00pm 14 15 mph 1016.5mb 86f
1:00pm 15 16 mph 1016.7mb 86f
12:00pm 17 18 mph 1017mb 86f
11:00am 16 18 mph 1016.8mb 86f
10:00am 15 16 mph 1016.7mb 86f
9:00am 14 15 mph 1016.5mb 85f
8:00am 11 14 mph 1016.2mb 85f
7:00am 11 13 mph 1016mb 85f
6:00am 10
mph
1015.9mb 85f
5:00am 10 11 mph 1016.2mb 85f
4:00am 10 11 mph 1016.7mb 85f
3:00am 11 13 mph 1017mb 85f
2:00am 15 16 mph 1017.2mb 84f
1:00am 13 14 mph 1017.8mb 84f
12:00am 14 15 mph 1018mb 84f
Fri 07/31 11:00pm 15 16 mph 1017.8mb 84f
10:00pm 18 20 mph 1017.5mb 83f
9:00pm 2 3 mph 1017.2mb 85f
8:00pm 7 8 mph 1016.5mb 85f
7:00pm 11 13 mph 1016.1mb 87f
6:00pm 11 13 mph 1016mb 88f
5:00pm 11 13 mph 1016.3mb 88f
4:00pm 10 11 mph 1016.7mb 88f
3:00pm 13 14 mph 1017.2mb 87f
2:00pm 14 15 mph 1017.3mb 87f
1:00pm 13 15 mph 1017.6mb 87f
12:00pm 10 11 mph 1018.2mb 87f
11:00am 10 11 mph 1018.1mb 87f
10:00am 7 8 mph 1018mb 86f
9:00am 10 11 mph 1017.7mb 86f
8:00am 10 11 mph 1017.3mb 85f
7:00am 10
mph
1017mb 85f
6:00am 7
mph
1016.9mb 85f
5:00am 7 9 mph 1016.6mb 85f
4:00am 5
mph
1016.6mb 85f
3:00am 3
mph
1017mb 85f
2:00am 2 3 mph 1017.5mb 85f
1:00am 2
mph
1017.9mb 85f
12:00am  -  1 mph 1018.2mb 86f
Thu 07/30 11:00pm 1 2 mph 1018.2mb 86f
10:00pm  -  1 mph 1017.7mb 86f
9:00pm 1 2 mph 1017.4mb 86f
8:00pm 3 5 mph 1017mb 85f
7:00pm  -  2 mph 1016.5mb 86f
6:00pm 2 6 mph 1016.3mb 86f
5:00pm 5 6 mph 1016.6mb 86f
4:00pm 6 7 mph 1016.8mb 86f
3:00pm 7 8 mph 1017.3mb 86f
2:00pm 6 7 mph 1017.9mb 85f
1:00pm 6 7 mph 1018.5mb 85f
12:00pm 6 7 mph 1018.8mb 85f
11:00am 5 6 mph 1018.9mb 85f
10:00am 7 8 mph 1018.4mb 85f
9:00am 7
mph
1018.1mb 85f
8:00am 3 6 mph 1017.6mb 85f
7:00am 1 3 mph 1017mb 84f
6:00am 6
mph
1016.9mb 85f
5:00am 7 9 mph 1016.6mb 85f
4:00am 5 6 mph 1016.5mb 85f
3:00am 6 7 mph 1016.7mb 85f
2:00am 3 5 mph 1017.3mb 86f
1:00am 5 6 mph 1017.5mb 86f
12:00am 6 7 mph 1017.6mb 86f
Wed 07/29 11:00pm 8 9 mph 1017.4mb 86f
10:00pm 6 7 mph 1017.2mb 86f
9:00pm 5 6 mph 1016.9mb 86f
8:00pm 5
mph
1016.6mb 87f
7:00pm  -  1 mph 1016.5mb 87f
6:00pm 2 3 mph 1016.5mb 88f